Time;durP1;ratioP1;P1;durP2;ratioP2;P2;SDS_P1;SDS_P2;PMS_P1;PMS_P2;Temp;Humidity;BMP_temperature;BMP_pressure;BME280_temperature;BME280_humidity;BME280_pressure;Samples;Min_cycle;Max_cycle;Signal;HPM_P1;HPM_P2
2023/10/08 00:04:57;;;;;;;8.47;6.37;;;10.80;99.90;;;;;;5934209;23;20326;-86
2023/10/08 00:34:47;;;;;;;14.13;7.90;;;10.70;99.90;;;;;;5818742;24;20680;-87
2023/10/08 01:00:37;;;;;;;13.40;6.73;;;10.60;99.90;;;;;;5578274;25;20727;-85
2023/10/08 01:31:04;;;;;;;10.60;6.63;;;10.60;99.90;;;;;;5800119;24;20273;-85
2023/10/08 01:56:27;;;;;;;14.37;6.60;;;10.50;99.90;;;;;;5835842;24;20207;-86
2023/10/08 03:07:11;;;;;;;11.53;6.33;;;10.60;99.90;;;;;;5735282;24;20618;-86
2023/10/08 04:12:58;;;;;;;5.30;2.30;;;10.50;96.10;;;;;;5531359;25;20281;-88
2023/10/08 05:34:42;;;;;;;2.50;1.80;;;9.60;91.00;;;;;;5737696;24;20198;-87
2023/10/08 06:09:37;;;;;;;4.13;2.00;;;9.60;89.90;;;;;;5946462;23;20389;-88
2023/10/08 06:34:56;;;;;;;1.43;1.17;;;9.60;86.20;;;;;;5807810;24;21022;-87
2023/10/08 07:00:37;;;;;;;1.27;0.77;;;9.60;82.60;;;;;;5594819;25;21151;-86
2023/10/08 07:56:06;;;;;;;4.63;1.40;;;9.80;74.50;;;;;;5545327;25;20271;-86
2023/10/08 08:16:47;;;;;;;1.23;0.80;;;10.00;69.30;;;;;;5719951;24;20625;-86
2023/10/08 08:42:08;;;;;;;2.10;1.00;;;10.20;66.40;;;;;;5568865;24;20187;-83
2023/10/08 09:17:27;;;;;;;2.30;1.10;;;10.50;61.70;;;;;;5785203;24;20438;-88
2023/10/08 09:37:46;;;;;;;0.70;0.70;;;10.40;60.90;;;;;;5625067;24;20583;-84
2023/10/08 10:38:58;;;;;;;0.90;0.63;;;11.00;56.00;;;;;;4941896;28;20219;-87
2023/10/08 11:04:28;;;;;;;0.60;0.60;;;11.20;52.60;;;;;;4946778;28;20661;-84
2023/10/08 11:08:47;;;;;;;0.70;0.50;;;11.30;53.30;;;;;;4885328;28;20833;-83
2023/10/08 11:29:51;;;;;;;1.50;0.60;;;11.50;49.90;;;;;;4872563;28;20782;-84
2023/10/08 11:34:13;;;;;;;1.40;0.80;;;11.60;50.60;;;;;;4826977;28;20698;-80
2023/10/08 11:55:18;;;;;;;0.60;0.60;;;11.70;46.70;;;;;;4787244;29;20214;-83
2023/10/08 11:59:32;;;;;;;4.37;0.83;;;11.60;46.30;;;;;;4820479;28;20693;-83
2023/10/08 12:35:39;;;;;;;2.30;0.67;;;12.10;43.60;;;;;;4966483;28;20356;-83
2023/10/08 13:25:54;;;;;;;3.47;0.97;;;11.90;43.00;;;;;;4757587;29;20860;-87
2023/10/08 13:41:38;;;;;;;2.50;0.90;;;12.30;44.40;;;;;;4592488;30;20277;-85
2023/10/08 14:11:37;;;;;;;2.50;1.07;;;11.90;42.40;;;;;;4553026;30;21137;-83
2023/10/08 15:22:15;;;;;;;3.27;1.00;;;11.40;41.60;;;;;;4723358;29;20859;-85
2023/10/08 15:43:08;;;;;;;2.37;1.03;;;11.20;41.40;;;;;;4741569;29;20294;-85
2023/10/08 16:13:43;;;;;;;2.27;1.20;;;10.60;42.40;;;;;;4663339;30;20222;-85
2023/10/08 16:44:07;;;;;;;5.93;1.60;;;10.00;44.10;;;;;;4630165;29;20259;-87
2023/10/08 17:04:05;;;;;;;2.77;1.77;;;10.00;45.10;;;;;;4590611;30;20291;-86
2023/10/08 17:34:17;;;;;;;4.10;1.97;;;9.30;46.00;;;;;;4535774;30;20415;-87
2023/10/08 18:00:17;;;;;;;4.07;1.73;;;9.30;46.70;;;;;;4622507;30;20265;-85
2023/10/08 18:20:11;;;;;;;1.73;1.50;;;9.40;46.50;;;;;;4689697;29;20745;-86
2023/10/08 18:50:24;;;;;;;2.77;1.90;;;8.70;47.80;;;;;;4651759;29;20677;-88
2023/10/08 19:16:20;;;;;;;3.77;2.00;;;8.50;48.80;;;;;;4658749;30;20310;-87
2023/10/08 19:46:52;;;;;;;4.47;2.00;;;8.10;49.70;;;;;;4647137;30;20851;-86
2023/10/08 20:52:18;;;;;;;4.30;2.40;;;6.80;66.70;;;;;;4873040;28;20461;-84
2023/10/08 21:22:31;;;;;;;4.33;2.40;;;5.70;81.40;;;;;;4742359;29;20532;-85
2023/10/08 21:53:01;;;;;;;5.97;2.90;;;5.10;84.60;;;;;;4671119;29;20740;-85
2023/10/08 22:13:32;;;;;;;4.00;2.80;;;4.80;86.40;;;;;;4755818;29;20347;-83
2023/10/08 22:44:00;;;;;;;5.43;3.43;;;4.40;91.00;;;;;;4762336;29;20482;-84
2023/10/08 23:04:37;;;;;;;6.73;2.87;;;4.20;92.50;;;;;;4770401;29;20489;-84
2023/10/08 23:24:54;;;;;;;6.73;3.30;;;3.80;95.00;;;;;;4637847;29;20352;-85
